Time;durP1;ratioP1;P1;durP2;ratioP2;P2;SDS_P1;SDS_P2;PMS_P1;PMS_P2;Temp;Humidity;BMP_temperature;BMP_pressure;BME280_temperature;BME280_humidity;BME280_pressure;Samples;Min_cycle;Max_cycle;Signal;HPM_P1;HPM_P2
2020/12/05 00:00:47;;;;;;;29.45;21.67;;;;;;;4.68;100.00;97957.28;2072935;28;20231;-85
2020/12/05 00:01:49;;;;;;;31.90;20.92;;;;;;;4.80;100.00;97983.28;2072638;28;20745;-85
2020/12/05 00:02:51;;;;;;;27.50;21.08;;;;;;;4.80;100.00;97978.00;2073414;28;20220;-85
2020/12/05 00:03:51;;;;;;;30.75;21.80;;;;;;;4.80;100.00;97967.44;2074661;28;20220;-78
2020/12/05 00:04:53;;;;;;;31.50;22.30;;;;;;;4.84;100.00;97976.34;2072105;28;20310;-86
2020/12/05 00:05:54;;;;;;;31.92;21.38;;;;;;;4.65;100.00;97944.63;2064427;28;20224;-84
2020/12/05 00:06:55;;;;;;;29.50;22.03;;;;;;;4.87;100.00;97970.53;2066363;28;20228;-84
2020/12/05 00:07:56;;;;;;;31.50;21.60;;;;;;;4.84;100.00;97965.78;2072827;28;20327;-85
2020/12/05 00:08:57;;;;;;;27.20;20.43;;;;;;;4.81;100.00;97961.88;2074241;28;20325;-84
2020/12/05 00:09:58;;;;;;;29.50;22.17;;;;;;;4.87;100.00;97967.88;2073034;28;20220;-84
2020/12/05 00:11:00;;;;;;;27.07;20.93;;;;;;;4.89;100.00;97973.66;2064615;28;20244;-84
2020/12/05 00:12:01;;;;;;;28.30;20.17;;;;;;;4.90;100.00;97979.72;2064990;28;20220;-85
2020/12/05 00:13:03;;;;;;;28.00;21.17;;;;;;;4.90;100.00;97969.16;2064862;28;20284;-85
2020/12/05 00:14:04;;;;;;;30.92;21.65;;;;;;;4.91;100.00;97974.16;2073868;28;20253;-85
2020/12/05 00:15:07;;;;;;;27.42;21.25;;;;;;;4.89;100.00;97973.66;2073998;28;20255;-86
2020/12/05 00:16:07;;;;;;;25.40;21.10;;;;;;;4.90;100.00;97974.44;2073246;28;20239;-85
2020/12/05 00:17:11;;;;;;;30.67;22.33;;;;;;;4.88;100.00;97973.94;2072886;28;20228;-85
2020/12/05 00:18:12;;;;;;;30.33;22.77;;;;;;;4.87;100.00;97967.88;2072585;28;20297;-85
2020/12/05 00:19:13;;;;;;;29.43;21.87;;;;;;;4.86;100.00;97974.22;2064517;28;20259;-85
2020/12/05 00:20:14;;;;;;;27.58;20.98;;;;;;;4.78;100.00;97959.81;2073077;28;20247;-86
2020/12/05 00:21:17;;;;;;;30.77;22.40;;;;;;;4.83;100.00;97965.00;2072699;28;20216;-86
2020/12/05 00:22:18;;;;;;;28.58;21.42;;;;;;;4.83;100.00;97967.66;2065024;28;20303;-86
2020/12/05 00:23:19;;;;;;;29.52;21.83;;;;;;;4.81;100.00;97961.09;2073044;28;20230;-86
2020/12/05 00:24:20;;;;;;;31.52;23.02;;;;;;;4.79;100.00;97960.59;2072714;28;20674;-86
2020/12/05 00:25:21;;;;;;;27.53;21.43;;;;;;;4.86;100.00;97971.56;2064775;28;20221;-86
2020/12/05 00:26:22;;;;;;;26.10;20.83;;;;;;;4.86;100.00;97962.84;2063782;28;20231;-85
2020/12/05 00:27:24;;;;;;;26.70;21.15;;;;;;;4.91;100.00;97971.50;2073095;28;20230;-86
2020/12/05 00:28:24;;;;;;;28.75;21.25;;;;;;;4.91;100.00;97973.38;2072546;28;20318;-85
2020/12/05 00:29:26;;;;;;;29.33;21.07;;;;;;;4.91;100.00;97966.22;2072602;28;20239;-86
2020/12/05 00:30:28;;;;;;;25.05;21.42;;;;;;;5.07;100.00;97964.16;2073148;28;20583;-86
2020/12/05 00:31:30;;;;;;;28.88;20.75;;;;;;;5.24;100.00;97959.13;2072875;28;20294;-86
2020/12/05 00:32:30;;;;;;;28.30;20.08;;;;;;;5.16;100.00;97953.72;2073550;28;20224;-86
2020/12/05 00:33:32;;;;;;;27.20;21.57;;;;;;;5.17;100.00;97964.00;2073363;28;21085;-86
2020/12/05 00:34:33;;;;;;;25.65;19.17;;;;;;;5.37;100.00;97966.31;2072339;28;20235;-86
2020/12/05 00:35:34;;;;;;;23.75;18.17;;;;;;;5.45;100.00;97943.72;2065481;28;20319;-86
2020/12/05 00:36:36;;;;;;;22.37;19.07;;;;;;;5.83;100.00;97970.09;2072721;28;20224;-86
2020/12/05 00:37:36;;;;;;;22.95;19.17;;;;;;;5.90;100.00;97967.84;2073910;28;20236;-82
2020/12/05 00:38:38;;;;;;;21.53;16.80;;;;;;;5.89;100.00;97961.75;2072883;28;20236;-85
2020/12/05 00:39:39;;;;;;;22.45;18.08;;;;;;;6.15;100.00;97982.50;2072700;28;20319;-86
2020/12/05 00:40:40;;;;;;;21.60;17.17;;;;;;;6.10;100.00;97980.75;2074353;28;20224;-85
2020/12/05 00:41:41;;;;;;;21.30;16.70;;;;;;;6.09;100.00;97973.91;2073297;28;20311;-85
2020/12/05 00:42:42;;;;;;;19.47;15.40;;;;;;;6.43;100.00;97978.03;2072465;28;20231;-84
2020/12/05 00:43:43;;;;;;;17.73;15.93;;;;;;;6.67;100.00;97991.81;2073587;28;20223;-85
2020/12/05 00:44:44;;;;;;;18.33;16.20;;;;;;;6.68;100.00;97972.19;2073319;28;20310;-86
2020/12/05 00:45:46;;;;;;;19.75;16.05;;;;;;;6.89;100.00;97985.03;2073467;28;20705;-86
2020/12/05 00:46:48;;;;;;;18.23;16.25;;;;;;;6.96;100.00;97990.72;2064621;28;20224;-86
2020/12/05 00:47:49;;;;;;;21.08;16.80;;;;;;;7.05;100.00;97979.09;2064424;28;20315;-86
2020/12/05 00:48:50;;;;;;;17.90;15.97;;;;;;;7.06;100.00;97975.38;2073834;28;20220;-86
2020/12/05 00:49:51;;;;;;;20.85;16.90;;;;;;;7.09;100.00;97995.97;2072435;28;20224;-85
2020/12/05 00:50:53;;;;;;;18.97;16.93;;;;;;;7.22;100.00;97993.59;2065253;28;20237;-85
2020/12/05 00:51:54;;;;;;;17.75;15.75;;;;;;;7.26;100.00;98000.63;2064462;28;20462;-86
2020/12/05 00:52:55;;;;;;;19.00;17.00;;;;;;;7.24;100.00;98002.81;2063712;28;20596;-86
2020/12/05 00:53:56;;;;;;;23.80;17.85;;;;;;;7.33;99.73;97990.41;2065554;28;21519;-86
2020/12/05 00:54:58;;;;;;;19.97;17.80;;;;;;;7.31;99.89;97989.94;2064395;28;20233;-85
2020/12/05 00:55:59;;;;;;;20.23;17.85;;;;;;;7.34;99.87;98001.78;2073088;28;20240;-85
2020/12/05 00:57:00;;;;;;;18.47;16.53;;;;;;;7.46;99.03;98009.22;2072829;28;20227;-87
2020/12/05 00:58:01;;;;;;;21.38;17.90;;;;;;;7.54;98.04;98000.53;2072624;28;20306;-86
2020/12/05 00:59:02;;;;;;;20.97;16.97;;;;;;;7.54;98.08;98001.31;2074232;28;20231;-86
2020/12/05 01:00:04;;;;;;;18.95;16.48;;;;;;;7.58;98.00;98004.94;2072908;28;20220;-86
2020/12/05 01:01:07;;;;;;;21.77;16.60;;;;;;;7.52;97.33;97986.78;2072135;28;20220;-86
2020/12/05 01:02:08;;;;;;;17.98;16.08;;;;;;;7.63;97.31;98006.69;2065160;28;20709;-86
2020/12/05 01:03:09;;;;;;;19.93;17.77;;;;;;;7.63;97.39;98001.38;2072308;28;20574;-86
2020/12/05 01:04:10;;;;;;;20.40;18.23;;;;;;;7.63;97.04;98006.69;2065438;28;20231;-85
2020/12/05 01:05:11;;;;;;;20.07;18.00;;;;;;;7.65;97.10;98013.28;2064152;28;20241;-87
2020/12/05 01:06:13;;;;;;;19.83;17.42;;;;;;;7.57;97.14;97997.28;2072645;28;20236;-87
2020/12/05 01:07:14;;;;;;;18.48;16.52;;;;;;;7.61;96.75;97990.28;2074342;28;20315;-87
2020/12/05 01:08:15;;;;;;;19.40;16.80;;;;;;;7.68;96.78;98003.91;2072335;28;20690;-87
2020/12/05 01:09:16;;;;;;;19.57;16.40;;;;;;;7.65;96.44;98001.88;2065459;28;20593;-87
2020/12/05 01:10:17;;;;;;;20.50;18.40;;;;;;;7.65;95.97;97992.03;2072554;28;20251;-87
2020/12/05 01:11:19;;;;;;;19.60;17.47;;;;;;;7.74;96.22;98007.25;2073315;28;20227;-87
2020/12/05 01:12:20;;;;;;;22.80;17.67;;;;;;;7.70;96.29;97993.78;2073688;28;20220;-87
2020/12/05 01:13:22;;;;;;;19.37;17.47;;;;;;;7.71;96.44;98005.97;2072583;28;20290;-87
2020/12/05 01:14:23;;;;;;;21.15;18.15;;;;;;;7.62;97.19;98002.47;2072669;28;20844;-80
2020/12/05 01:15:24;;;;;;;19.47;15.87;;;;;;;7.54;97.33;97989.91;2073272;28;20231;-85
2020/12/05 01:16:27;;;;;;;19.63;17.63;;;;;;;7.62;97.10;98000.59;2073044;28;20235;-86
2020/12/05 01:17:32;;;;;;;18.30;16.48;;;;;;;7.56;97.45;98003.69;2073076;28;20227;-86
2020/12/05 01:18:32;;;;;;;21.17;18.92;;;;;;;7.54;97.79;98005.84;2072428;28;20232;-86
2020/12/05 01:19:34;;;;;;;18.83;16.83;;;;;;;7.53;97.54;98005.06;2073043;28;20220;-86
2020/12/05 01:20:35;;;;;;;17.55;15.80;;;;;;;7.62;97.29;98005.91;2073523;28;20729;-86
2020/12/05 01:21:36;;;;;;;19.60;16.87;;;;;;;7.65;96.85;98007.19;2072145;28;20596;-86
2020/12/05 01:22:37;;;;;;;17.55;15.75;;;;;;;7.61;96.77;97998.25;2073640;28;20443;-85
2020/12/05 01:23:39;;;;;;;18.57;16.60;;;;;;;7.67;96.67;98004.22;2080416;28;20234;-85
2020/12/05 01:24:40;;;;;;;18.08;16.25;;;;;;;7.61;96.76;97988.41;2080275;28;20677;-85
2020/12/05 01:25:41;;;;;;;20.60;17.27;;;;;;;7.64;96.54;97997.63;2073365;28;20621;-86
2020/12/05 01:26:42;;;;;;;19.00;17.00;;;;;;;7.63;96.54;97998.72;2072094;28;20333;-86
2020/12/05 01:27:44;;;;;;;21.10;18.93;;;;;;;7.65;96.65;98013.28;2081410;28;20689;-86
2020/12/05 01:28:45;;;;;;;20.77;16.63;;;;;;;7.70;96.57;98012.34;2081199;28;20224;-86
2020/12/05 01:29:46;;;;;;;18.03;16.17;;;;;;;7.51;96.91;97993.19;2080493;28;20216;-86
2020/12/05 01:30:47;;;;;;;18.75;16.88;;;;;;;7.54;96.79;97988.03;2081934;28;20243;-86
2020/12/05 01:31:49;;;;;;;17.40;15.63;;;;;;;7.52;96.79;97994.75;2080419;28;20211;-86
2020/12/05 01:32:50;;;;;;;20.23;17.30;;;;;;;7.53;96.47;98007.72;2082025;28;20434;-85
2020/12/05 01:33:52;;;;;;;19.43;16.93;;;;;;;7.58;96.73;98023.53;2079888;28;20262;-86
2020/12/05 01:34:52;;;;;;;18.40;16.60;;;;;;;7.53;96.70;98004.28;2079755;28;20273;-85
2020/12/05 01:35:54;;;;;;;19.90;17.27;;;;;;;7.60;96.88;98005.44;2081900;28;20227;-85
2020/12/05 01:36:55;;;;;;;19.63;17.63;;;;;;;7.63;96.44;98004.81;2080359;28;20227;-86
2020/12/05 01:37:56;;;;;;;18.03;15.50;;;;;;;7.62;96.47;98003.25;2080447;28;20232;-85
2020/12/05 01:38:57;;;;;;;18.88;16.85;;;;;;;7.52;96.76;97997.41;2081330;28;20265;-85
2020/12/05 01:39:59;;;;;;;17.23;15.43;;;;;;;7.59;96.99;98005.72;2080606;28;20215;-86
2020/12/05 01:41:00;;;;;;;18.92;16.92;;;;;;;7.46;97.10;97988.75;2081726;28;20430;-86
2020/12/05 01:42:02;;;;;;;19.25;17.23;;;;;;;7.62;96.78;98007.78;2080249;28;20579;-87
2020/12/05 01:43:03;;;;;;;17.98;16.05;;;;;;;7.59;96.39;98005.72;2080027;28;20704;-86
2020/12/05 01:44:04;;;;;;;19.73;17.63;;;;;;;7.60;96.26;98000.13;2073424;28;20585;-86
2020/12/05 01:45:05;;;;;;;19.13;16.75;;;;;;;7.68;96.35;98001.25;2080567;28;20230;-86
2020/12/05 01:46:07;;;;;;;19.53;17.63;;;;;;;7.71;96.14;97999.88;2080701;28;20223;-86
2020/12/05 01:47:10;;;;;;;17.83;15.93;;;;;;;7.75;96.23;98006.94;2079794;28;20611;-86
2020/12/05 01:48:11;;;;;;;20.08;17.98;;;;;;;7.80;95.76;98006.00;2080158;28;20227;-85
2020/12/05 01:49:15;;;;;;;19.85;17.33;;;;;;;7.80;95.48;97995.38;2073170;28;20239;-86
2020/12/05 01:50:17;;;;;;;20.30;18.20;;;;;;;7.68;95.84;97985.34;2080464;28;20219;-85
2020/12/05 01:51:18;;;;;;;18.50;16.58;;;;;;;7.85;95.57;98003.25;2081350;28;20566;-86
2020/12/05 01:52:20;;;;;;;19.33;17.33;;;;;;;7.82;95.47;97991.38;2071691;28;20282;-86
2020/12/05 01:53:21;;;;;;;20.45;17.58;;;;;;;7.87;94.99;97988.56;2072336;28;20763;-86
2020/12/05 01:54:23;;;;;;;20.65;18.45;;;;;;;7.89;95.11;97989.03;2072825;28;20251;-85
2020/12/05 01:55:23;;;;;;;19.58;17.48;;;;;;;7.91;94.93;97994.06;2080333;28;20231;-86
2020/12/05 01:56:26;;;;;;;20.17;18.07;;;;;;;7.95;94.71;97989.72;2080998;28;20227;-80
2020/12/05 01:57:27;;;;;;;19.27;17.48;;;;;;;7.88;94.59;97978.72;2079891;28;20269;-86
2020/12/05 01:58:28;;;;;;;19.77;17.80;;;;;;;8.03;94.29;98006.78;2080362;28;20250;-87
2020/12/05 01:59:29;;;;;;;20.02;17.95;;;;;;;7.95;94.31;97987.06;2081617;28;20318;-86
2020/12/05 02:00:31;;;;;;;18.33;16.57;;;;;;;8.03;93.64;97996.94;2071877;28;20228;-86
2020/12/05 02:01:32;;;;;;;18.55;16.73;;;;;;;8.07;93.87;97999.75;2080222;28;20449;-86
2020/12/05 02:02:37;;;;;;;18.73;16.70;;;;;;;8.09;93.84;98002.91;2081337;28;20227;-86
2020/12/05 02:03:38;;;;;;;18.60;16.75;;;;;;;7.94;94.06;97980.94;2071787;28;20228;-86
2020/12/05 02:04:47;;;;;;;18.85;16.98;;;;;;;8.10;93.70;97999.94;2079936;28;20219;-86
2020/12/05 02:06:00;;;;;;;18.67;16.67;;;;;;;8.03;94.41;97991.63;2080843;28;20227;-86
2020/12/05 02:07:12;;;;;;;21.15;18.85;;;;;;;7.97;94.51;97989.41;2079940;28;20219;-87
2020/12/05 02:08:15;;;;;;;21.65;16.85;;;;;;;8.03;94.06;97985.53;2072678;28;20254;-87
2020/12/05 02:09:19;;;;;;;19.02;15.60;;;;;;;8.11;93.65;97984.78;2080378;28;20278;-87
2020/12/05 02:10:25;;;;;;;17.27;15.48;;;;;;;8.12;93.56;97989.78;2072429;28;20658;-87
2020/12/05 02:11:31;;;;;;;18.38;16.35;;;;;;;7.97;93.90;97970.81;2079586;28;20230;-86
2020/12/05 02:12:35;;;;;;;19.02;16.35;;;;;;;8.09;94.03;97993.06;2080945;28;20242;-87
2020/12/05 02:13:38;;;;;;;17.20;15.40;;;;;;;8.04;93.32;97984.44;2081155;28;20239;-86
2020/12/05 02:14:40;;;;;;;20.50;16.88;;;;;;;8.13;93.39;97986.03;2079890;28;20277;-86
2020/12/05 02:15:44;;;;;;;18.55;16.55;;;;;;;8.11;93.13;97993.53;2071941;28;20227;-86
2020/12/05 02:16:46;;;;;;;18.65;16.67;;;;;;;8.01;93.06;97969.91;2080165;28;20215;-86
2020/12/05 02:17:53;;;;;;;18.05;15.93;;;;;;;8.04;93.42;97977.25;2079967;28;21125;-86
2020/12/05 02:18:54;;;;;;;17.35;15.60;;;;;;;8.04;93.21;97984.44;2079897;28;20298;-85
2020/12/05 02:19:55;;;;;;;17.90;16.00;;;;;;;7.95;93.40;97976.44;2080187;28;20685;-86
2020/12/05 02:21:00;;;;;;;20.13;16.47;;;;;;;8.07;93.93;97989.91;2072616;28;20240;-87
2020/12/05 02:22:02;;;;;;;18.23;16.30;;;;;;;7.99;93.86;97992.53;2080174;28;20464;-86
2020/12/05 02:23:09;;;;;;;18.40;16.50;;;;;;;7.88;94.64;97995.44;2081441;28;20258;-87
2020/12/05 02:24:10;;;;;;;18.60;16.67;;;;;;;7.81;94.82;97984.47;2071830;28;20386;-86
2020/12/05 02:25:13;;;;;;;19.37;16.33;;;;;;;7.76;94.54;97973.19;2080216;28;20228;-86
2020/12/05 02:26:14;;;;;;;20.00;16.38;;;;;;;7.84;94.88;97991.84;2081965;28;20242;-86
2020/12/05 02:27:16;;;;;;;19.75;17.50;;;;;;;7.81;95.17;97994.31;2079935;28;20215;-86
2020/12/05 02:28:17;;;;;;;20.65;16.30;;;;;;;7.68;95.63;97987.22;2081264;28;21180;-86
2020/12/05 02:29:19;;;;;;;18.27;16.23;;;;;;;7.57;95.77;97992.75;2080007;28;20247;-86
2020/12/05 02:30:20;;;;;;;21.92;16.65;;;;;;;7.52;96.58;98008.03;2080111;28;20227;-86
2020/12/05 02:31:21;;;;;;;17.60;15.60;;;;;;;7.40;97.04;97994.50;2081508;28;20681;-86
2020/12/05 02:32:22;;;;;;;22.17;16.95;;;;;;;7.33;97.58;98000.22;2080275;28;20318;-84
2020/12/05 02:33:24;;;;;;;18.27;15.73;;;;;;;7.19;98.12;97989.66;2081219;28;20234;-86
2020/12/05 02:34:24;;;;;;;18.77;16.45;;;;;;;7.12;98.67;97981.31;2079178;28;20220;-86
2020/12/05 02:35:27;;;;;;;19.30;17.03;;;;;;;7.16;99.17;97992.91;2071822;28;20240;-86
2020/12/05 02:36:29;;;;;;;18.90;16.70;;;;;;;6.96;99.55;97980.91;2081146;28;20227;-85
2020/12/05 02:37:32;;;;;;;20.27;17.38;;;;;;;7.01;99.62;97987.94;2080010;28;20227;-86
2020/12/05 02:38:41;;;;;;;17.58;15.77;;;;;;;7.01;99.78;98001.19;2082136;28;20223;-85
2020/12/05 02:39:44;;;;;;;18.75;16.77;;;;;;;6.96;100.00;97991.50;2079827;28;20231;-86
2020/12/05 02:40:45;;;;;;;19.85;17.83;;;;;;;6.88;100.00;97983.47;2080688;28;20758;-86
2020/12/05 02:41:47;;;;;;;20.95;17.48;;;;;;;6.84;100.00;97988.56;2080703;28;20265;-86
2020/12/05 02:42:48;;;;;;;21.20;19.00;;;;;;;6.67;100.00;97983.88;2080108;28;20557;-86
2020/12/05 02:43:49;;;;;;;23.17;19.07;;;;;;;6.73;100.00;97990.66;2080715;28;20225;-86
2020/12/05 02:44:52;;;;;;;20.63;18.50;;;;;;;6.69;100.00;97997.63;2079978;28;20227;-87
2020/12/05 02:45:54;;;;;;;20.88;17.75;;;;;;;6.61;100.00;97977.13;2080166;28;20579;-85
2020/12/05 02:46:56;;;;;;;20.55;18.38;;;;;;;6.62;100.00;97984.00;2080720;28;20280;-86
2020/12/05 02:47:57;;;;;;;19.65;17.60;;;;;;;6.46;100.00;97972.13;2071390;28;20240;-85
2020/12/05 02:48:59;;;;;;;20.88;17.65;;;;;;;6.65;100.00;97993.22;2071358;28;20680;-86
2020/12/05 02:50:01;;;;;;;19.85;17.75;;;;;;;6.61;100.00;97976.34;2071660;28;20693;-87
2020/12/05 02:51:02;;;;;;;20.30;18.13;;;;;;;6.62;100.00;97983.22;2063599;28;20730;-87
2020/12/05 02:52:03;;;;;;;21.57;17.27;;;;;;;6.47;100.00;97984.28;2080073;28;20661;-86
2020/12/05 02:53:04;;;;;;;21.13;18.60;;;;;;;6.46;100.00;97993.31;2079029;28;20219;-86
2020/12/05 02:54:07;;;;;;;21.05;17.92;;;;;;;6.32;100.00;97989.88;2079726;28;20219;-86
2020/12/05 02:55:08;;;;;;;21.17;17.95;;;;;;;6.30;100.00;97984.09;2079175;28;20322;-85
2020/12/05 02:56:09;;;;;;;21.17;18.97;;;;;;;6.29;100.00;97996.56;2080466;28;20231;-85
2020/12/05 02:57:10;;;;;;;21.13;18.55;;;;;;;6.23;100.00;97989.78;2080151;28;20318;-87
2020/12/05 02:58:11;;;;;;;24.07;18.67;;;;;;;6.12;100.00;97981.25;2080690;28;20230;-86
2020/12/05 02:59:12;;;;;;;21.70;18.50;;;;;;;6.22;100.00;97986.34;2079758;28;20824;-86
2020/12/05 03:00:13;;;;;;;20.57;18.43;;;;;;;6.32;100.00;97984.59;2079947;28;20224;-86
2020/12/05 03:01:14;;;;;;;21.15;18.88;;;;;;;6.28;100.00;97984.41;2079548;28;20777;-86
2020/12/05 03:02:15;;;;;;;20.73;18.30;;;;;;;6.36;100.00;97999.59;2079796;28;20610;-86
2020/12/05 03:03:16;;;;;;;22.42;19.95;;;;;;;6.27;100.00;98001.38;2079356;28;20222;-86
2020/12/05 03:04:18;;;;;;;20.70;18.13;;;;;;;6.34;100.00;98011.56;2079968;28;20226;-86
2020/12/05 03:05:19;;;;;;;22.35;19.10;;;;;;;6.26;100.00;98001.66;2080773;28;20269;-87
2020/12/05 03:06:20;;;;;;;26.77;18.20;;;;;;;6.10;100.00;97987.91;2079550;28;20285;-87
2020/12/05 03:07:21;;;;;;;22.10;18.38;;;;;;;6.12;100.00;98009.59;2081095;28;20545;-87
2020/12/05 03:08:23;;;;;;;23.07;18.23;;;;;;;6.11;100.00;98003.50;2078892;28;20810;-86
2020/12/05 03:09:25;;;;;;;23.08;18.90;;;;;;;6.37;100.00;98011.78;2079635;28;20230;-86
2020/12/05 03:10:26;;;;;;;21.08;18.83;;;;;;;6.54;100.00;97994.50;2080727;28;20281;-87
2020/12/05 03:11:27;;;;;;;22.42;18.25;;;;;;;6.53;100.00;97993.72;2079878;28;20579;-85
2020/12/05 03:12:28;;;;;;;19.47;17.47;;;;;;;6.66;100.00;98005.38;2079784;28;20215;-86
2020/12/05 03:13:29;;;;;;;23.15;17.85;;;;;;;6.60;100.00;97998.59;2080479;28;20232;-86
2020/12/05 03:14:30;;;;;;;20.50;18.00;;;;;;;6.63;100.00;98003.31;2071872;28;20259;-86
2020/12/05 03:15:31;;;;;;;22.27;17.70;;;;;;;6.60;100.00;98004.69;2080725;28;20203;-87
2020/12/05 03:16:33;;;;;;;23.33;18.00;;;;;;;6.53;100.00;98000.88;2079398;28;20614;-87
2020/12/05 03:17:34;;;;;;;21.25;18.00;;;;;;;6.29;100.00;97990.47;2080026;28;20247;-87
2020/12/05 03:18:35;;;;;;;21.43;17.33;;;;;;;6.18;100.00;97998.63;2080864;28;20220;-86
2020/12/05 03:19:36;;;;;;;21.90;17.33;;;;;;;6.13;100.00;98011.94;2080323;28;20451;-87
2020/12/05 03:20:37;;;;;;;22.93;18.37;;;;;;;5.99;100.00;98002.38;2081351;28;20231;-83
2020/12/05 03:21:38;;;;;;;22.60;18.60;;;;;;;5.95;100.00;98016.22;2080093;28;20235;-86
2020/12/05 03:22:39;;;;;;;20.87;18.13;;;;;;;5.87;100.00;98013.44;2079336;28;20235;-87
2020/12/05 03:23:45;;;;;;;20.83;17.55;;;;;;;5.81;100.00;98017.22;2080967;28;20227;-87
2020/12/05 03:24:47;;;;;;;23.40;18.85;;;;;;;5.70;100.00;98010.53;2079653;28;20246;-87
2020/12/05 03:25:48;;;;;;;21.83;17.38;;;;;;;5.72;100.00;98011.03;2081035;28;20230;-87
2020/12/05 03:26:50;;;;;;;23.97;18.53;;;;;;;5.64;100.00;98004.53;2079865;28;20235;-86
2020/12/05 03:27:50;;;;;;;22.70;18.98;;;;;;;5.60;100.00;98006.97;2079533;28;20227;-87
2020/12/05 03:28:54;;;;;;;24.37;17.80;;;;;;;5.60;100.00;98006.97;2080900;28;20223;-87
2020/12/05 03:29:55;;;;;;;23.73;17.65;;;;;;;5.59;100.00;98009.91;2079177;28;20713;-87
2020/12/05 03:30:57;;;;;;;22.05;18.58;;;;;;;5.54;100.00;97997.53;2072166;28;20228;-86
2020/12/05 03:32:00;;;;;;;23.23;18.35;;;;;;;5.48;100.00;97998.72;2080211;28;20242;-87
2020/12/05 03:33:01;;;;;;;22.58;18.50;;;;;;;5.52;100.00;97996.28;2079498;28;20219;-87
2020/12/05 03:34:04;;;;;;;25.50;18.83;;;;;;;5.42;100.00;97984.00;2080513;28;20230;-87
2020/12/05 03:35:06;;;;;;;21.27;18.70;;;;;;;5.49;100.00;97989.69;2079489;28;20227;-86
2020/12/05 03:36:07;;;;;;;23.27;18.55;;;;;;;5.45;100.00;97986.03;2079003;28;20587;-81
2020/12/05 03:37:08;;;;;;;22.57;18.53;;;;;;;5.37;100.00;97976.13;2080550;28;20241;-85
2020/12/05 03:38:09;;;;;;;23.25;18.83;;;;;;;5.42;100.00;97976.06;2079492;28;20242;-85
2020/12/05 03:39:11;;;;;;;26.97;18.43;;;;;;;5.44;100.00;97978.41;2071783;28;20227;-85
2020/12/05 03:40:13;;;;;;;24.13;19.20;;;;;;;5.41;100.00;97986.94;2079214;28;20234;-85
2020/12/05 03:41:14;;;;;;;22.17;19.25;;;;;;;5.37;100.00;97973.47;2071454;28;20590;-86
2020/12/05 03:42:15;;;;;;;23.73;18.33;;;;;;;5.34;100.00;97966.13;2080660;28;20235;-85
2020/12/05 03:43:16;;;;;;;22.10;18.23;;;;;;;5.44;100.00;97983.69;2079939;28;20215;-85
2020/12/05 03:44:18;;;;;;;24.02;19.55;;;;;;;5.26;100.00;97962.28;2081173;28;20716;-85
2020/12/05 03:45:19;;;;;;;22.63;17.73;;;;;;;5.31;100.00;97970.16;2079378;28;20215;-85
2020/12/05 03:46:20;;;;;;;25.30;18.17;;;;;;;5.43;100.00;97972.34;2079305;28;20721;-85
2020/12/05 03:47:21;;;;;;;21.48;18.15;;;;;;;5.22;100.00;97952.56;2080607;28;20613;-85
2020/12/05 03:48:22;;;;;;;21.95;19.55;;;;;;;5.25;100.00;97970.50;2079178;28;20242;-84
2020/12/05 03:49:30;;;;;;;21.73;19.07;;;;;;;5.24;100.00;97979.50;2080724;28;20275;-85
2020/12/05 03:50:31;;;;;;;24.50;19.35;;;;;;;5.06;100.00;97958.09;2079666;28;20798;-84
2020/12/05 03:51:33;;;;;;;23.77;19.83;;;;;;;5.18;100.00;97983.28;2079461;28;20661;-85
2020/12/05 03:52:34;;;;;;;23.02;19.23;;;;;;;5.15;100.00;97973.31;2080894;28;20306;-86
2020/12/05 03:53:35;;;;;;;26.97;19.30;;;;;;;5.11;100.00;97976.50;2079924;28;20230;-86
2020/12/05 03:54:36;;;;;;;21.88;19.52;;;;;;;5.08;100.00;97978.94;2081359;28;20306;-85
2020/12/05 03:55:38;;;;;;;21.53;19.23;;;;;;;4.93;100.00;97956.16;2079951;28;20704;-81
2020/12/05 03:56:40;;;;;;;24.50;20.50;;;;;;;5.03;100.00;97973.72;2080183;28;20461;-85
2020/12/05 03:57:41;;;;;;;23.95;18.52;;;;;;;5.05;100.00;97961.03;2081427;28;20731;-85
2020/12/05 03:58:43;;;;;;;21.30;18.23;;;;;;;5.00;100.00;97967.16;2080274;28;20700;-86
2020/12/05 03:59:45;;;;;;;21.38;18.38;;;;;;;5.05;100.00;97979.53;2079459;28;20620;-86
2020/12/05 04:00:45;;;;;;;23.33;20.70;;;;;;;5.05;100.00;97976.88;2080533;28;20333;-86
2020/12/05 04:01:47;;;;;;;20.77;18.47;;;;;;;5.05;100.00;97982.16;2079875;28;20685;-85
2020/12/05 04:02:48;;;;;;;20.45;17.48;;;;;;;5.03;100.00;97979.78;2080260;28;20239;-86
2020/12/05 04:03:49;;;;;;;21.73;19.33;;;;;;;5.05;100.00;97975.03;2071054;28;20227;-86
2020/12/05 04:04:50;;;;;;;24.40;19.15;;;;;;;5.06;100.00;97975.81;2071332;28;20228;-86
2020/12/05 04:05:51;;;;;;;20.77;18.63;;;;;;;5.03;100.00;97968.44;2080813;28;20227;-86
2020/12/05 04:06:52;;;;;;;22.70;20.30;;;;;;;4.95;100.00;97958.50;2078921;28;20665;-85
2020/12/05 04:07:54;;;;;;;23.27;19.97;;;;;;;5.07;100.00;97972.09;2081064;28;20227;-85
2020/12/05 04:08:55;;;;;;;21.45;19.17;;;;;;;5.09;100.00;97973.38;2079205;28;20227;-86
2020/12/05 04:09:56;;;;;;;22.13;19.35;;;;;;;5.14;100.00;97983.09;2071299;28;20223;-86
2020/12/05 04:10:58;;;;;;;23.77;21.27;;;;;;;5.23;100.00;97981.38;2080562;28;20239;-86
2020/12/05 04:11:59;;;;;;;26.02;21.05;;;;;;;5.28;100.00;97985.78;2079465;28;20328;-86
2020/12/05 04:13:00;;;;;;;26.50;20.25;;;;;;;5.35;100.00;97986.22;2072355;28;20573;-86
2020/12/05 04:14:02;;;;;;;26.50;21.90;;;;;;;5.32;100.00;97969.06;2071777;28;20294;-85
2020/12/05 04:15:03;;;;;;;28.23;20.73;;;;;;;5.61;100.00;97989.25;2071202;28;20717;-85
2020/12/05 04:16:04;;;;;;;24.90;19.63;;;;;;;5.73;100.00;97986.91;2080668;28;20579;-86
2020/12/05 04:17:06;;;;;;;24.65;20.25;;;;;;;5.63;100.00;97981.78;2079375;28;20585;-86
2020/12/05 04:18:07;;;;;;;26.98;21.15;;;;;;;5.59;100.00;97986.88;2071042;28;20230;-84
2020/12/05 04:19:08;;;;;;;23.83;20.55;;;;;;;5.44;100.00;97968.59;2080619;28;20220;-85
2020/12/05 04:20:09;;;;;;;27.00;20.70;;;;;;;5.52;100.00;97989.13;2079419;28;20227;-86
2020/12/05 04:21:10;;;;;;;23.05;20.30;;;;;;;5.36;100.00;97974.56;2079383;28;20235;-86
2020/12/05 04:22:12;;;;;;;25.80;20.10;;;;;;;5.44;100.00;97984.47;2079114;28;20223;-86
2020/12/05 04:23:13;;;;;;;27.40;21.30;;;;;;;5.54;100.00;97983.53;2079478;28;20667;-86
2020/12/05 04:24:14;;;;;;;27.50;21.07;;;;;;;5.63;100.00;97973.84;2079074;28;20250;-86
2020/12/05 04:25:15;;;;;;;24.88;20.48;;;;;;;5.93;100.00;97993.78;2079359;28;20231;-86
2020/12/05 04:26:17;;;;;;;26.87;22.07;;;;;;;5.95;100.00;97983.66;2079441;28;20703;-86
2020/12/05 04:27:18;;;;;;;26.48;21.58;;;;;;;5.90;100.00;97992.47;2079253;28;20224;-85
2020/12/05 04:28:19;;;;;;;25.10;20.40;;;;;;;5.90;100.00;97996.94;2080079;28;20289;-85
2020/12/05 04:29:20;;;;;;;27.88;22.13;;;;;;;6.11;100.00;98019.41;2080737;28;20223;-85
2020/12/05 04:30:22;;;;;;;25.97;21.63;;;;;;;5.72;100.00;97961.53;2072823;28;20286;-85
2020/12/05 04:31:23;;;;;;;24.35;20.13;;;;;;;6.16;100.00;98010.56;2080545;28;20230;-84
2020/12/05 04:32:24;;;;;;;26.63;21.30;;;;;;;6.10;100.00;98003.81;2081791;28;20231;-85
2020/12/05 04:33:25;;;;;;;24.98;20.70;;;;;;;6.08;100.00;97992.69;2081669;28;20298;-84
2020/12/05 04:34:26;;;;;;;23.30;19.33;;;;;;;6.04;100.00;97987.22;2080787;28;20227;-85
2020/12/05 04:35:27;;;;;;;23.10;19.45;;;;;;;6.02;100.00;97994.66;2080549;28;20259;-85
2020/12/05 04:36:28;;;;;;;25.73;21.83;;;;;;;6.00;100.00;97996.81;2080733;28;20222;-85
2020/12/05 04:37:29;;;;;;;25.30;19.83;;;;;;;6.03;100.00;98013.97;2073913;28;20303;-85
2020/12/05 04:38:30;;;;;;;25.20;20.33;;;;;;;5.90;100.00;97997.75;2072894;28;20282;-86
2020/12/05 04:39:31;;;;;;;22.52;19.58;;;;;;;5.95;100.00;98002.97;2073911;28;20753;-86
2020/12/05 04:40:33;;;;;;;25.50;20.40;;;;;;;5.94;100.00;98004.06;2072616;28;20565;-86
2020/12/05 04:41:34;;;;;;;23.73;19.77;;;;;;;5.93;100.00;97999.06;2080994;28;20224;-86
2020/12/05 04:42:43;;;;;;;26.80;21.25;;;;;;;5.91;100.00;98009.16;2081953;28;20320;-87
2020/12/05 04:43:44;;;;;;;28.50;21.15;;;;;;;5.91;100.00;98006.53;2080425;28;20219;-86
2020/12/05 04:44:47;;;;;;;24.77;20.20;;;;;;;5.81;100.00;97993.41;2081916;28;20223;-86